sensor_id;sensor_type;location;lat;lon;timestamp;temperature;humidity
27368;DHT22;14839;48.106;11.618;2023-04-21T04:02:10;6.40;94.60
27368;DHT22;14839;48.106;11.618;2023-04-21T04:04:35;6.40;94.60
27368;DHT22;14839;48.106;11.618;2023-04-21T04:07:01;6.50;94.60
27368;DHT22;14839;48.106;11.618;2023-04-21T04:09:27;6.40;94.60
27368;DHT22;14839;48.106;11.618;2023-04-21T04:11:52;6.30;94.60
27368;DHT22;14839;48.106;11.618;2023-04-21T04:14:18;6.30;94.60
27368;DHT22;14839;48.106;11.618;2023-04-21T04:16:43;6.30;94.60
27368;DHT22;14839;48.106;11.618;2023-04-21T04:19:09;6.30;94.60
27368;DHT22;14839;48.106;11.618;2023-04-21T04:21:36;6.30;94.60
27368;DHT22;14839;48.106;11.618;2023-04-21T04:24:01;6.20;94.60
27368;DHT22;14839;48.106;11.618;2023-04-21T04:26:27;6.20;94.60
27368;DHT22;14839;48.106;11.618;2023-04-21T04:28:53;6.20;94.60
27368;DHT22;14839;48.106;11.618;2023-04-21T04:31:21;6.30;94.60
27368;DHT22;14839;48.106;11.618;2023-04-21T04:33:50;6.30;94.60
27368;DHT22;14839;48.106;11.618;2023-04-21T04:36:15;6.20;94.60
27368;DHT22;14839;48.106;11.618;2023-04-21T04:38:41;6.10;94.60
27368;DHT22;14839;48.106;11.618;2023-04-21T04:41:06;6.20;94.60
27368;DHT22;14839;48.106;11.618;2023-04-21T04:43:34;6.20;94.60
27368;DHT22;14839;48.106;11.618;2023-04-21T04:46:02;6.20;94.60
27368;DHT22;14839;48.106;11.618;2023-04-21T04:48:27;6.20;94.60
27368;DHT22;14839;48.106;11.618;2023-04-21T04:50:53;6.20;94.60
27368;DHT22;14839;48.106;11.618;2023-04-21T04:53:19;6.10;94.60
27368;DHT22;14839;48.106;11.618;2023-04-21T04:55:44;6.10;94.60
27368;DHT22;14839;48.106;11.618;2023-04-21T04:58:11;6.20;94.60
27368;DHT22;14839;48.106;11.618;2023-04-21T05:00:37;6.10;94.60
27368;DHT22;14839;48.106;11.618;2023-04-21T05:03:03;6.10;94.60
27368;DHT22;14839;48.106;11.618;2023-04-21T05:05:28;6.20;94.60
27368;DHT22;14839;48.106;11.618;2023-04-21T05:07:54;6.30;94.60
27368;DHT22;14839;48.106;11.618;2023-04-21T05:10:20;6.50;94.60
27368;DHT22;14839;48.106;11.618;2023-04-21T05:12:45;6.40;94.60
27368;DHT22;14839;48.106;11.618;2023-04-21T05:15:11;6.30;94.60
27368;DHT22;14839;48.106;11.618;2023-04-21T05:17:37;6.40;94.60
27368;DHT22;14839;48.106;11.618;2023-04-21T05:20:06;6.50;94.60
27368;DHT22;14839;48.106;11.618;2023-04-21T05:22:39;6.50;94.60
27368;DHT22;14839;48.106;11.618;2023-04-21T05:25:05;6.60;94.60
27368;DHT22;14839;48.106;11.618;2023-04-21T05:27:31;6.60;94.60
27368;DHT22;14839;48.106;11.618;2023-04-21T05:30:01;6.60;94.60
27368;DHT22;14839;48.106;11.618;2023-04-21T05:32:30;6.50;94.60
27368;DHT22;14839;48.106;11.618;2023-04-21T05:34:56;6.60;94.60
27368;DHT22;14839;48.106;11.618;2023-04-21T05:37:22;6.80;94.60
27368;DHT22;14839;48.106;11.618;2023-04-21T05:39:50;6.90;94.60
27368;DHT22;14839;48.106;11.618;2023-04-21T05:42:16;6.90;94.60
27368;DHT22;14839;48.106;11.618;2023-04-21T05:44:42;7.00;94.60
27368;DHT22;14839;48.106;11.618;2023-04-21T05:47:08;7.20;94.60
27368;DHT22;14839;48.106;11.618;2023-04-21T05:49:34;7.40;94.60
27368;DHT22;14839;48.106;11.618;2023-04-21T05:51:59;7.70;94.60
27368;DHT22;14839;48.106;11.618;2023-04-21T05:54:25;7.80;94.60
27368;DHT22;14839;48.106;11.618;2023-04-21T05:56:51;8.10;94.60
27368;DHT22;14839;48.106;11.618;2023-04-21T05:59:16;8.20;94.60
27368;DHT22;14839;48.106;11.618;2023-04-21T06:01:42;8.30;94.60
27368;DHT22;14839;48.106;11.618;2023-04-21T06:04:08;8.60;94.60
27368;DHT22;14839;48.106;11.618;2023-04-21T06:06:34;9.10;94.60
27368;DHT22;14839;48.106;11.618;2023-04-21T06:08:59;10.20;94.60
27368;DHT22;14839;48.106;11.618;2023-04-21T06:11:25;11.30;94.60
27368;DHT22;14839;48.106;11.618;2023-04-21T06:13:51;12.40;90.50
27368;DHT22;14839;48.106;11.618;2023-04-21T06:16:22;13.50;85.40
27368;DHT22;14839;48.106;11.618;2023-04-21T06:18:48;14.40;80.60
27368;DHT22;14839;48.106;11.618;2023-04-21T06:21:13;14.40;82.40
27368;DHT22;14839;48.106;11.618;2023-04-21T06:23:40;14.50;81.20
27368;DHT22;14839;48.106;11.618;2023-04-21T06:26:06;15.00;76.60
27368;DHT22;14839;48.106;11.618;2023-04-21T06:28:33;14.50;82.30
27368;DHT22;14839;48.106;11.618;2023-04-21T06:30:59;14.40;78.80
27368;DHT22;14839;48.106;11.618;2023-04-21T06:33:26;13.60;82.90
27368;DHT22;14839;48.106;11.618;2023-04-21T06:35:52;14.30;81.80
27368;DHT22;14839;48.106;11.618;2023-04-21T06:38:18;15.10;81.10
27368;DHT22;14839;48.106;11.618;2023-04-21T06:40:43;16.60;75.80
27368;DHT22;14839;48.106;11.618;2023-04-21T06:43:09;17.20;70.40
27368;DHT22;14839;48.106;11.618;2023-04-21T06:45:35;17.10;69.50
27368;DHT22;14839;48.106;11.618;2023-04-21T06:48:00;17.70;69.80
27368;DHT22;14839;48.106;11.618;2023-04-21T06:50:26;18.10;66.80
27368;DHT22;14839;48.106;11.618;2023-04-21T06:52:51;17.10;68.30
27368;DHT22;14839;48.106;11.618;2023-04-21T06:55:17;16.40;71.80
27368;DHT22;14839;48.106;11.618;2023-04-21T06:57:42;16.40;72.40
27368;DHT22;14839;48.106;11.618;2023-04-21T07:00:09;16.50;73.10
27368;DHT22;14839;48.106;11.618;2023-04-21T07:02:34;16.60;71.60
27368;DHT22;14839;48.106;11.618;2023-04-21T07:05:00;15.00;75.40
27368;DHT22;14839;48.106;11.618;2023-04-21T07:07:29;15.30;76.40
27368;DHT22;14839;48.106;11.618;2023-04-21T07:09:54;15.10;77.50
27368;DHT22;14839;48.106;11.618;2023-04-21T07:12:20;14.80;76.40
27368;DHT22;14839;48.106;11.618;2023-04-21T07:14:46;14.60;79.60
27368;DHT22;14839;48.106;11.618;2023-04-21T07:17:11;14.40;79.10
27368;DHT22;14839;48.106;11.618;2023-04-21T07:19:37;13.80;80.20
27368;DHT22;14839;48.106;11.618;2023-04-21T07:22:03;13.40;83.20
27368;DHT22;14839;48.106;11.618;2023-04-21T07:24:29;13.00;83.00
27368;DHT22;14839;48.106;11.618;2023-04-21T07:26:55;13.10;84.70
27368;DHT22;14839;48.106;11.618;2023-04-21T07:29:20;13.40;84.10
27368;DHT22;14839;48.106;11.618;2023-04-21T07:31:46;14.00;84.40
27368;DHT22;14839;48.106;11.618;2023-04-21T07:34:12;14.80;80.20
27368;DHT22;14839;48.106;11.618;2023-04-21T07:36:38;14.90;79.10
27368;DHT22;14839;48.106;11.618;2023-04-21T07:39:04;14.70;80.20
27368;DHT22;14839;48.106;11.618;2023-04-21T07:41:29;14.60;79.10
27368;DHT22;14839;48.106;11.618;2023-04-21T07:43:55;14.20;82.00
27368;DHT22;14839;48.106;11.618;2023-04-21T07:46:21;14.60;82.40
27368;DHT22;14839;48.106;11.618;2023-04-21T07:48:54;13.90;80.60
27368;DHT22;14839;48.106;11.618;2023-04-21T07:51:20;13.70;82.00
27368;DHT22;14839;48.106;11.618;2023-04-21T07:53:45;13.90;82.30
27368;DHT22;14839;48.106;11.618;2023-04-21T07:56:11;13.80;82.70
27368;DHT22;14839;48.106;11.618;2023-04-21T07:58:37;14.20;81.40
27368;DHT22;14839;48.106;11.618;2023-04-21T08:01:03;14.30;80.30
27368;DHT22;14839;48.106;11.618;2023-04-21T08:03:28;15.00;79.40
27368;DHT22;14839;48.106;11.618;2023-04-21T08:05:54;15.20;79.10
27368;DHT22;14839;48.106;11.618;2023-04-21T08:08:19;15.50;76.10
27368;DHT22;14839;48.106;11.618;2023-04-21T08:10:46;15.90;76.90
27368;DHT22;14839;48.106;11.618;2023-04-21T08:13:11;16.30;73.90
27368;DHT22;14839;48.106;11.618;2023-04-21T08:15:37;16.60;74.20
27368;DHT22;14839;48.106;11.618;2023-04-21T08:18:03;16.90;73.90
27368;DHT22;14839;48.106;11.618;2023-04-21T08:20:28;16.70;71.20
27368;DHT22;14839;48.106;11.618;2023-04-21T08:22:54;17.30;71.80
27368;DHT22;14839;48.106;11.618;2023-04-21T08:25:20;17.30;70.00
27368;DHT22;14839;48.106;11.618;2023-04-21T08:27:46;17.50;70.00
27368;DHT22;14839;48.106;11.618;2023-04-21T08:30:12;17.70;69.20
27368;DHT22;14839;48.106;11.618;2023-04-21T08:32:37;18.20;70.10
27368;DHT22;14839;48.106;11.618;2023-04-21T08:35:03;18.60;67.60
27368;DHT22;14839;48.106;11.618;2023-04-21T08:37:29;17.50;71.90
27368;DHT22;14839;48.106;11.618;2023-04-21T08:39:54;18.20;69.10
27368;DHT22;14839;48.106;11.618;2023-04-21T08:42:20;18.10;67.30
27368;DHT22;14839;48.106;11.618;2023-04-21T08:44:46;17.80;69.50
27368;DHT22;14839;48.106;11.618;2023-04-21T08:47:13;17.30;70.90
27368;DHT22;14839;48.106;11.618;2023-04-21T08:49:40;16.90;74.30
27368;DHT22;14839;48.106;11.618;2023-04-21T08:52:06;16.50;77.60
27368;DHT22;14839;48.106;11.618;2023-04-21T08:54:32;16.50;73.90
27368;DHT22;14839;48.106;11.618;2023-04-21T08:56:58;15.70;76.10
27368;DHT22;14839;48.106;11.618;2023-04-21T08:59:23;15.70;76.30
27368;DHT22;14839;48.106;11.618;2023-04-21T09:04:47;17.50;73.70
27368;DHT22;14839;48.106;11.618;2023-04-21T09:07:30;18.70;70.00
27368;DHT22;14839;48.106;11.618;2023-04-21T09:09:57;19.70;68.50
27368;DHT22;14839;48.106;11.618;2023-04-21T09:12:23;19.70;64.40
27368;DHT22;14839;48.106;11.618;2023-04-21T09:14:49;19.00;67.40
27368;DHT22;14839;48.106;11.618;2023-04-21T09:17:16;18.00;69.70
27368;DHT22;14839;48.106;11.618;2023-04-21T09:19:43;17.80;70.60
27368;DHT22;14839;48.106;11.618;2023-04-21T09:22:13;17.80;72.20
27368;DHT22;14839;48.106;11.618;2023-04-21T09:24:47;17.50;71.60
27368;DHT22;14839;48.106;11.618;2023-04-21T09:27:14;17.20;71.30
27368;DHT22;14839;48.106;11.618;2023-04-21T09:29:45;17.10;72.40
27368;DHT22;14839;48.106;11.618;2023-04-21T09:32:18;17.70;71.60
27368;DHT22;14839;48.106;11.618;2023-04-21T09:34:45;18.40;69.50
27368;DHT22;14839;48.106;11.618;2023-04-21T09:37:12;18.80;67.60
27368;DHT22;14839;48.106;11.618;2023-04-21T09:39:38;18.90;65.90
27368;DHT22;14839;48.106;11.618;2023-04-21T09:42:04;18.40;66.80
27368;DHT22;14839;48.106;11.618;2023-04-21T09:44:30;18.20;69.70
27368;DHT22;14839;48.106;11.618;2023-04-21T09:47:03;18.40;67.60
27368;DHT22;14839;48.106;11.618;2023-04-21T09:49:30;17.80;67.40
27368;DHT22;14839;48.106;11.618;2023-04-21T09:51:59;17.00;70.70
27368;DHT22;14839;48.106;11.618;2023-04-21T09:54:32;17.40;73.30
27368;DHT22;14839;48.106;11.618;2023-04-21T09:57:04;18.30;72.20
27368;DHT22;14839;48.106;11.618;2023-04-21T09:59:42;19.20;65.30
27368;DHT22;14839;48.106;11.618;2023-04-21T10:02:11;19.10;65.90
27368;DHT22;14839;48.106;11.618;2023-04-21T10:04:40;19.30;66.10
27368;DHT22;14839;48.106;11.618;2023-04-21T10:07:06;19.10;68.30
27368;DHT22;14839;48.106;11.618;2023-04-21T10:09:44;19.10;68.50
27368;DHT22;14839;48.106;11.618;2023-04-21T10:12:12;19.30;67.90
27368;DHT22;14839;48.106;11.618;2023-04-21T10:14:38;19.60;67.00
27368;DHT22;14839;48.106;11.618;2023-04-21T10:17:08;20.10;65.60
27368;DHT22;14839;48.106;11.618;2023-04-21T10:19:35;20.00;66.10
27368;DHT22;14839;48.106;11.618;2023-04-21T10:22:08;19.50;66.10
27368;DHT22;14839;48.106;11.618;2023-04-21T10:24:38;19.30;68.60
27368;DHT22;14839;48.106;11.618;2023-04-21T10:27:04;19.50;69.20
27368;DHT22;14839;48.106;11.618;2023-04-21T10:29:32;19.60;68.20
27368;DHT22;14839;48.106;11.618;2023-04-21T10:31:58;19.70;70.00
27368;DHT22;14839;48.106;11.618;2023-04-21T10:34:35;20.00;68.20
27368;DHT22;14839;48.106;11.618;2023-04-21T10:42:19;19.30;69.50
27368;DHT22;14839;48.106;11.618;2023-04-21T10:47:35;19.50;69.50
27368;DHT22;14839;48.106;11.618;2023-04-21T10:50:19;19.10;70.30
27368;DHT22;14839;48.106;11.618;2023-04-21T10:53:09;18.90;71.80
27368;DHT22;14839;48.106;11.618;2023-04-21T10:55:36;19.30;72.70
27368;DHT22;14839;48.106;11.618;2023-04-21T10:58:03;19.20;70.30
27368;DHT22;14839;48.106;11.618;2023-04-21T11:00:30;19.20;71.20
27368;DHT22;14839;48.106;11.618;2023-04-21T11:03:03;18.90;72.70
27368;DHT22;14839;48.106;11.618;2023-04-21T11:05:31;18.80;72.50
27368;DHT22;14839;48.106;11.618;2023-04-21T11:10:50;18.70;73.10
27368;DHT22;14839;48.106;11.618;2023-04-21T11:13:16;18.40;74.00
27368;DHT22;14839;48.106;11.618;2023-04-21T11:16:04;18.40;75.40
27368;DHT22;14839;48.106;11.618;2023-04-21T11:18:38;18.50;74.20
27368;DHT22;14839;48.106;11.618;2023-04-21T11:21:11;18.20;74.30
27368;DHT22;14839;48.106;11.618;2023-04-21T11:23:40;18.30;75.20
27368;DHT22;14839;48.106;11.618;2023-04-21T11:26:06;18.50;74.80
27368;DHT22;14839;48.106;11.618;2023-04-21T11:28:32;18.60;75.20
27368;DHT22;14839;48.106;11.618;2023-04-21T11:30:58;19.00;74.20
27368;DHT22;14839;48.106;11.618;2023-04-21T11:33:23;19.20;72.80
27368;DHT22;14839;48.106;11.618;2023-04-21T11:35:49;19.10;72.10
27368;DHT22;14839;48.106;11.618;2023-04-21T11:38:16;18.70;72.10
27368;DHT22;14839;48.106;11.618;2023-04-21T11:40:45;18.90;73.00
27368;DHT22;14839;48.106;11.618;2023-04-21T11:43:10;18.90;72.70
27368;DHT22;14839;48.106;11.618;2023-04-21T11:45:36;18.20;72.10
27368;DHT22;14839;48.106;11.618;2023-04-21T11:48:13;18.40;74.30
27368;DHT22;14839;48.106;11.618;2023-04-21T11:50:39;18.60;73.70
27368;DHT22;14839;48.106;11.618;2023-04-21T11:53:10;18.90;73.40
27368;DHT22;14839;48.106;11.618;2023-04-21T11:55:41;19.00;71.80
27368;DHT22;14839;48.106;11.618;2023-04-21T11:58:07;18.60;69.10
27368;DHT22;14839;48.106;11.618;2023-04-21T12:00:32;17.80;69.10
27368;DHT22;14839;48.106;11.618;2023-04-21T12:02:58;17.80;71.30
27368;DHT22;14839;48.106;11.618;2023-04-21T12:05:23;17.90;69.10
27368;DHT22;14839;48.106;11.618;2023-04-21T12:07:49;18.00;68.60
27368;DHT22;14839;48.106;11.618;2023-04-21T12:10:18;17.90;65.50
27368;DHT22;14839;48.106;11.618;2023-04-21T12:12:44;18.10;67.00
27368;DHT22;14839;48.106;11.618;2023-04-21T12:15:15;18.30;68.60
27368;DHT22;14839;48.106;11.618;2023-04-21T12:17:46;18.40;69.10
27368;DHT22;14839;48.106;11.618;2023-04-21T12:20:14;18.30;70.60
27368;DHT22;14839;48.106;11.618;2023-04-21T12:22:41;18.40;71.90
27368;DHT22;14839;48.106;11.618;2023-04-21T12:25:06;18.50;73.00
27368;DHT22;14839;48.106;11.618;2023-04-21T12:27:33;18.40;71.30
27368;DHT22;14839;48.106;11.618;2023-04-21T12:29:59;18.30;70.10
27368;DHT22;14839;48.106;11.618;2023-04-21T12:32:25;18.40;69.40
27368;DHT22;14839;48.106;11.618;2023-04-21T12:34:51;18.40;70.60
27368;DHT22;14839;48.106;11.618;2023-04-21T12:37:17;18.60;68.50
27368;DHT22;14839;48.106;11.618;2023-04-21T12:39:43;18.50;67.70
27368;DHT22;14839;48.106;11.618;2023-04-21T12:42:22;18.50;66.80
27368;DHT22;14839;48.106;11.618;2023-04-21T12:45:05;18.40;66.40
27368;DHT22;14839;48.106;11.618;2023-04-21T12:47:31;17.90;65.80
27368;DHT22;14839;48.106;11.618;2023-04-21T12:50:06;17.70;67.40
27368;DHT22;14839;48.106;11.618;2023-04-21T12:52:31;17.70;69.50
27368;DHT22;14839;48.106;11.618;2023-04-21T12:54:57;17.80;68.50
27368;DHT22;14839;48.106;11.618;2023-04-21T12:57:23;18.00;68.80
27368;DHT22;14839;48.106;11.618;2023-04-21T12:59:48;18.00;67.90
27368;DHT22;14839;48.106;11.618;2023-04-21T13:02:14;18.00;66.40
27368;DHT22;14839;48.106;11.618;2023-04-21T13:04:40;18.00;65.30
27368;DHT22;14839;48.106;11.618;2023-04-21T13:07:07;18.10;66.80
27368;DHT22;14839;48.106;11.618;2023-04-21T13:09:32;17.90;67.40
27368;DHT22;14839;48.106;11.618;2023-04-21T13:11:58;17.60;68.60
27368;DHT22;14839;48.106;11.618;2023-04-21T13:14:24;17.50;69.80
27368;DHT22;14839;48.106;11.618;2023-04-21T13:16:49;17.70;70.00
27368;DHT22;14839;48.106;11.618;2023-04-21T13:19:15;18.00;69.10
27368;DHT22;14839;48.106;11.618;2023-04-21T13:21:41;18.00;68.50
27368;DHT22;14839;48.106;11.618;2023-04-21T13:24:06;17.90;68.00
27368;DHT22;14839;48.106;11.618;2023-04-21T13:26:32;17.80;66.10
27368;DHT22;14839;48.106;11.618;2023-04-21T13:28:59;17.90;68.20
27368;DHT22;14839;48.106;11.618;2023-04-21T13:31:25;18.20;67.70
27368;DHT22;14839;48.106;11.618;2023-04-21T13:33:51;18.20;68.00
27368;DHT22;14839;48.106;11.618;2023-04-21T13:36:17;18.30;68.20
27368;DHT22;14839;48.106;11.618;2023-04-21T13:38:43;18.40;67.00
27368;DHT22;14839;48.106;11.618;2023-04-21T13:41:08;18.40;68.50
27368;DHT22;14839;48.106;11.618;2023-04-21T13:43:34;18.40;66.20
27368;DHT22;14839;48.106;11.618;2023-04-21T13:46:00;18.40;66.70
27368;DHT22;14839;48.106;11.618;2023-04-21T13:48:26;18.50;66.40
27368;DHT22;14839;48.106;11.618;2023-04-21T13:50:55;18.40;67.00
27368;DHT22;14839;48.106;11.618;2023-04-21T13:53:20;18.60;66.80
27368;DHT22;14839;48.106;11.618;2023-04-21T13:55:46;18.60;67.40
27368;DHT22;14839;48.106;11.618;2023-04-21T13:58:13;18.70;66.40
27368;DHT22;14839;48.106;11.618;2023-04-21T14:00:40;18.70;66.20
27368;DHT22;14839;48.106;11.618;2023-04-21T14:03:05;18.80;64.70
27368;DHT22;14839;48.106;11.618;2023-04-21T14:05:31;18.80;65.50
27368;DHT22;14839;48.106;11.618;2023-04-21T14:07:57;18.70;66.40
27368;DHT22;14839;48.106;11.618;2023-04-21T14:10:23;18.60;67.00
27368;DHT22;14839;48.106;11.618;2023-04-21T14:12:49;18.70;66.40
27368;DHT22;14839;48.106;11.618;2023-04-21T14:15:14;18.80;66.10
27368;DHT22;14839;48.106;11.618;2023-04-21T14:17:40;18.90;66.10
27368;DHT22;14839;48.106;11.618;2023-04-21T14:20:06;18.80;67.10
27368;DHT22;14839;48.106;11.618;2023-04-21T14:22:34;18.90;67.10
27368;DHT22;14839;48.106;11.618;2023-04-21T14:24:59;19.00;66.70
27368;DHT22;14839;48.106;11.618;2023-04-21T14:27:25;19.00;66.40
27368;DHT22;14839;48.106;11.618;2023-04-21T14:29:51;19.00;65.00
27368;DHT22;14839;48.106;11.618;2023-04-21T14:32:16;18.90;65.90
27368;DHT22;14839;48.106;11.618;2023-04-21T14:34:44;19.00;65.30
27368;DHT22;14839;48.106;11.618;2023-04-21T14:37:10;19.00;65.60
27368;DHT22;14839;48.106;11.618;2023-04-21T14:39:36;19.10;65.50
27368;DHT22;14839;48.106;11.618;2023-04-21T14:42:02;19.10;64.60
27368;DHT22;14839;48.106;11.618;2023-04-21T14:44:27;19.20;61.70
27368;DHT22;14839;48.106;11.618;2023-04-21T14:46:53;19.30;61.30
27368;DHT22;14839;48.106;11.618;2023-04-21T14:49:19;19.30;61.70
27368;DHT22;14839;48.106;11.618;2023-04-21T14:51:45;19.30;63.70
27368;DHT22;14839;48.106;11.618;2023-04-21T14:54:13;19.30;62.90
27368;DHT22;14839;48.106;11.618;2023-04-21T14:56:40;19.20;62.90
27368;DHT22;14839;48.106;11.618;2023-04-21T14:59:05;19.20;63.70
27368;DHT22;14839;48.106;11.618;2023-04-21T15:01:31;19.30;64.00
27368;DHT22;14839;48.106;11.618;2023-04-21T15:03:57;19.30;61.30
27368;DHT22;14839;48.106;11.618;2023-04-21T15:06:24;19.30;59.70
27368;DHT22;14839;48.106;11.618;2023-04-21T15:08:50;19.50;57.90
27368;DHT22;14839;48.106;11.618;2023-04-21T15:11:17;19.40;60.20
27368;DHT22;14839;48.106;11.618;2023-04-21T15:13:43;19.30;60.70
27368;DHT22;14839;48.106;11.618;2023-04-21T15:16:08;19.30;61.90
27368;DHT22;14839;48.106;11.618;2023-04-21T15:18:34;19.40;61.60
27368;DHT22;14839;48.106;11.618;2023-04-21T15:21:00;19.40;61.30
27368;DHT22;14839;48.106;11.618;2023-04-21T15:23:26;19.50;61.30
27368;DHT22;14839;48.106;11.618;2023-04-21T15:25:51;19.60;61.60
27368;DHT22;14839;48.106;11.618;2023-04-21T15:28:17;19.60;60.80
27368;DHT22;14839;48.106;11.618;2023-04-21T15:30:43;19.60;60.20
27368;DHT22;14839;48.106;11.618;2023-04-21T15:33:08;19.60;60.70
27368;DHT22;14839;48.106;11.618;2023-04-21T15:35:35;19.60;61.10
27368;DHT22;14839;48.106;11.618;2023-04-21T15:38:01;19.60;60.40
27368;DHT22;14839;48.106;11.618;2023-04-21T15:40:27;19.60;59.50
27368;DHT22;14839;48.106;11.618;2023-04-21T15:42:52;19.60;60.20
27368;DHT22;14839;48.106;11.618;2023-04-21T15:45:18;19.60;59.70
27368;DHT22;14839;48.106;11.618;2023-04-21T15:47:44;19.60;60.10
27368;DHT22;14839;48.106;11.618;2023-04-21T15:50:10;19.70;61.10
27368;DHT22;14839;48.106;11.618;2023-04-21T15:52:36;19.60;61.00
27368;DHT22;14839;48.106;11.618;2023-04-21T15:55:09;19.60;60.80
27368;DHT22;14839;48.106;11.618;2023-04-21T15:57:36;19.50;60.10
27368;DHT22;14839;48.106;11.618;2023-04-21T16:00:01;19.50;60.50
27368;DHT22;14839;48.106;11.618;2023-04-21T16:02:27;19.60;60.40
27368;DHT22;14839;48.106;11.618;2023-04-21T16:04:53;19.50;61.90
27368;DHT22;14839;48.106;11.618;2023-04-21T16:07:19;19.40;62.50
27368;DHT22;14839;48.106;11.618;2023-04-21T16:09:44;19.40;62.60
27368;DHT22;14839;48.106;11.618;2023-04-21T16:12:10;19.30;62.80
27368;DHT22;14839;48.106;11.618;2023-04-21T16:14:36;19.30;61.90
27368;DHT22;14839;48.106;11.618;2023-04-21T16:17:03;19.30;61.40
27368;DHT22;14839;48.106;11.618;2023-04-21T16:19:29;19.30;61.70
27368;DHT22;14839;48.106;11.618;2023-04-21T16:21:55;19.30;62.00
27368;DHT22;14839;48.106;11.618;2023-04-21T16:24:21;19.30;62.00
27368;DHT22;14839;48.106;11.618;2023-04-21T16:26:46;19.20;61.90
27368;DHT22;14839;48.106;11.618;2023-04-21T16:29:12;19.20;62.20
27368;DHT22;14839;48.106;11.618;2023-04-21T16:31:38;19.10;62.90
27368;DHT22;14839;48.106;11.618;2023-04-21T16:34:03;19.10;63.70
27368;DHT22;14839;48.106;11.618;2023-04-21T16:36:29;19.10;62.90
27368;DHT22;14839;48.106;11.618;2023-04-21T16:38:56;19.00;62.60
27368;DHT22;14839;48.106;11.618;2023-04-21T16:41:22;19.00;62.20
27368;DHT22;14839;48.106;11.618;2023-04-21T16:43:48;19.00;62.30
27368;DHT22;14839;48.106;11.618;2023-04-21T16:46:14;19.00;61.40
27368;DHT22;14839;48.106;11.618;2023-04-21T16:48:40;18.90;61.90
27368;DHT22;14839;48.106;11.618;2023-04-21T16:51:05;18.80;62.50
27368;DHT22;14839;48.106;11.618;2023-04-21T16:53:31;18.80;62.90
27368;DHT22;14839;48.106;11.618;2023-04-21T16:55:57;18.70;63.50
27368;DHT22;14839;48.106;11.618;2023-04-21T16:58:24;18.70;63.70
27368;DHT22;14839;48.106;11.618;2023-04-21T17:00:50;18.70;64.10
27368;DHT22;14839;48.106;11.618;2023-04-21T17:03:16;18.60;64.30
27368;DHT22;14839;48.106;11.618;2023-04-21T17:05:42;18.50;64.70
27368;DHT22;14839;48.106;11.618;2023-04-21T17:08:07;18.50;65.50
27368;DHT22;14839;48.106;11.618;2023-04-21T17:10:33;18.40;65.80
27368;DHT22;14839;48.106;11.618;2023-04-21T17:12:58;18.30;66.40
27368;DHT22;14839;48.106;11.618;2023-04-21T17:15:24;18.20;66.50
27368;DHT22;14839;48.106;11.618;2023-04-21T17:17:50;18.10;66.70
27368;DHT22;14839;48.106;11.618;2023-04-21T17:20:16;18.00;67.60
27368;DHT22;14839;48.106;11.618;2023-04-21T17:22:42;18.00;67.70
27368;DHT22;14839;48.106;11.618;2023-04-21T17:25:08;17.90;68.00
27368;DHT22;14839;48.106;11.618;2023-04-21T17:27:35;17.80;68.20
27368;DHT22;14839;48.106;11.618;2023-04-21T17:30:02;17.80;68.20
27368;DHT22;14839;48.106;11.618;2023-04-21T17:32:28;17.70;68.20
27368;DHT22;14839;48.106;11.618;2023-04-21T17:34:53;17.70;68.80
27368;DHT22;14839;48.106;11.618;2023-04-21T17:37:19;17.60;68.80
27368;DHT22;14839;48.106;11.618;2023-04-21T17:39:45;17.50;69.80
27368;DHT22;14839;48.106;11.618;2023-04-21T17:42:10;17.40;70.30
27368;DHT22;14839;48.106;11.618;2023-04-21T17:44:36;17.40;70.60
27368;DHT22;14839;48.106;11.618;2023-04-21T17:47:04;17.30;71.00
27368;DHT22;14839;48.106;11.618;2023-04-21T17:49:33;17.20;71.60
27368;DHT22;14839;48.106;11.618;2023-04-21T17:51:59;17.20;71.90
27368;DHT22;14839;48.106;11.618;2023-04-21T17:54:25;17.10;72.20
27368;DHT22;14839;48.106;11.618;2023-04-21T17:56:50;17.10;72.50
27368;DHT22;14839;48.106;11.618;2023-04-21T17:59:16;17.00;73.00
27368;DHT22;14839;48.106;11.618;2023-04-21T18:01:41;16.90;73.60
27368;DHT22;14839;48.106;11.618;2023-04-21T18:04:07;16.80;74.20
27368;DHT22;14839;48.106;11.618;2023-04-21T18:06:33;16.70;74.80
27368;DHT22;14839;48.106;11.618;2023-04-21T18:08:59;16.60;75.40
27368;DHT22;14839;48.106;11.618;2023-04-21T18:11:24;16.50;75.80
27368;DHT22;14839;48.106;11.618;2023-04-21T18:13:50;16.30;77.00
27368;DHT22;14839;48.106;11.618;2023-04-21T18:16:16;16.20;77.00
27368;DHT22;14839;48.106;11.618;2023-04-21T18:18:42;16.20;77.30
27368;DHT22;14839;48.106;11.618;2023-04-21T18:21:07;16.10;77.80
27368;DHT22;14839;48.106;11.618;2023-04-21T18:23:33;16.00;77.30
27368;DHT22;14839;48.106;11.618;2023-04-21T18:25:59;16.00;77.80
27368;DHT22;14839;48.106;11.618;2023-04-21T18:28:24;15.90;78.40
27368;DHT22;14839;48.106;11.618;2023-04-21T18:30:51;15.80;78.40
27368;DHT22;14839;48.106;11.618;2023-04-21T18:33:16;15.80;78.50
27368;DHT22;14839;48.106;11.618;2023-04-21T18:35:43;15.70;78.70
27368;DHT22;14839;48.106;11.618;2023-04-21T18:38:08;15.60;79.10
27368;DHT22;14839;48.106;11.618;2023-04-21T18:40:36;15.60;79.40
27368;DHT22;14839;48.106;11.618;2023-04-21T18:43:03;15.50;79.70
27368;DHT22;14839;48.106;11.618;2023-04-21T18:45:29;15.50;79.90
27368;DHT22;14839;48.106;11.618;2023-04-21T18:47:54;15.40;80.30
27368;DHT22;14839;48.106;11.618;2023-04-21T18:50:20;15.40;80.60
27368;DHT22;14839;48.106;11.618;2023-04-21T18:52:46;15.30;80.90
27368;DHT22;14839;48.106;11.618;2023-04-21T18:55:13;15.30;81.20
27368;DHT22;14839;48.106;11.618;2023-04-21T18:57:38;15.10;81.50
27368;DHT22;14839;48.106;11.618;2023-04-21T19:00:05;15.10;82.10
27368;DHT22;14839;48.106;11.618;2023-04-21T19:02:31;15.00;82.40
27368;DHT22;14839;48.106;11.618;2023-04-21T19:04:57;14.90;83.00
27368;DHT22;14839;48.106;11.618;2023-04-21T19:07:23;14.80;83.00
27368;DHT22;14839;48.106;11.618;2023-04-21T19:09:48;14.60;84.70
27368;DHT22;14839;48.106;11.618;2023-04-21T19:12:16;14.30;85.40
27368;DHT22;14839;48.106;11.618;2023-04-21T19:14:42;14.20;86.20
27368;DHT22;14839;48.106;11.618;2023-04-21T19:17:07;14.00;87.10
27368;DHT22;14839;48.106;11.618;2023-04-21T19:19:33;13.80;88.40
27368;DHT22;14839;48.106;11.618;2023-04-21T19:21:58;13.60;89.20
27368;DHT22;14839;48.106;11.618;2023-04-21T19:24:24;13.50;89.60
27368;DHT22;14839;48.106;11.618;2023-04-21T19:26:50;13.30;90.40
27368;DHT22;14839;48.106;11.618;2023-04-21T19:29:16;13.20;90.90